createdAt,value
2022-11-20T00:04:27.811Z,-1.26
2022-11-20T00:09:29.791Z,-1.26
2022-11-20T00:14:31.688Z,-1.26
2022-11-20T00:19:33.939Z,-1.18
2022-11-20T00:24:41.681Z,-1.11
2022-11-20T00:29:44.789Z,-1.10
2022-11-20T00:34:46.871Z,-1.29
2022-11-20T00:39:48.777Z,-1.28
2022-11-20T00:44:50.889Z,-1.40
2022-11-20T00:49:52.889Z,-1.26
2022-11-20T00:54:55.068Z,-1.43
2022-11-20T00:59:56.940Z,-1.44
2022-11-20T01:05:00.243Z,-1.49
2022-11-20T01:10:02.193Z,-1.53
2022-11-20T01:15:04.555Z,-1.69
2022-11-20T01:20:07.096Z,-1.62
2022-11-20T01:25:09.228Z,-1.67
2022-11-20T01:30:11.892Z,-1.75
2022-11-20T01:35:13.895Z,-1.79
2022-11-20T01:40:16.033Z,-1.77
2022-11-20T01:45:55.534Z,-1.68
2022-11-20T01:50:59.076Z,-1.80
2022-11-20T01:56:03.790Z,-1.91
2022-11-20T02:01:05.967Z,-1.93
2022-11-20T02:06:17.619Z,-1.79
2022-11-20T02:11:20.224Z,-1.88
2022-11-20T02:16:36.209Z,-1.87
2022-11-20T02:21:40.516Z,-1.86
2022-11-20T02:27:10.711Z,-1.88
2022-11-20T02:32:36.314Z,-1.93
2022-11-20T02:37:41.227Z,-1.78
2022-11-20T02:42:43.132Z,-1.88
2022-11-20T02:47:45.117Z,-1.79
2022-11-20T02:52:47.016Z,-1.82
2022-11-20T02:57:49.560Z,-1.94
2022-11-20T03:02:51.477Z,-2.00
2022-11-20T03:07:53.421Z,-1.98
2022-11-20T03:12:56.550Z,-2.17
2022-11-20T03:17:58.631Z,-2.01
2022-11-20T03:23:00.888Z,-2.03
2022-11-20T03:28:02.912Z,-2.13
2022-11-20T03:33:04.787Z,-2.12
2022-11-20T03:38:06.709Z,-2.22
2022-11-20T03:43:10.653Z,-2.15
2022-11-20T03:48:12.543Z,-2.19
2022-11-20T03:53:16.052Z,-2.31
2022-11-20T03:58:19.134Z,-2.12
2022-11-20T04:03:21.412Z,-2.22
2022-11-20T04:08:23.496Z,-2.21
2022-11-20T04:13:25.373Z,-2.33
2022-11-20T04:18:27.363Z,-2.28
2022-11-20T04:23:29.610Z,-2.23
2022-11-20T04:28:31.622Z,-2.54
2022-11-20T04:33:34.645Z,-2.33
2022-11-20T04:38:36.818Z,-2.22
2022-11-20T04:43:38.728Z,-2.45
2022-11-20T04:48:40.616Z,-2.41
2022-11-20T04:53:42.898Z,-2.48
2022-11-20T04:58:45.547Z,-2.36
2022-11-20T05:03:48.170Z,-2.39
2022-11-20T05:08:50.311Z,-2.50
2022-11-20T05:13:53.037Z,-2.43
2022-11-20T05:18:56.282Z,-2.38
2022-11-20T05:23:58.154Z,-2.33
2022-11-20T05:29:00.049Z,-2.36
2022-11-20T05:34:02.126Z,-2.22
2022-11-20T05:39:04.824Z,-2.26
2022-11-20T05:44:06.705Z,-2.37
2022-11-20T05:49:08.592Z,-2.21
2022-11-20T05:54:10.477Z,-2.22
2022-11-20T05:59:12.543Z,-2.28
2022-11-20T06:04:14.470Z,-2.28
2022-11-20T06:09:16.418Z,-2.07
2022-11-20T06:14:18.288Z,-2.16
2022-11-20T06:19:20.530Z,-2.17
2022-11-20T06:24:22.561Z,-2.09
2022-11-20T06:29:32.623Z,-1.93
2022-11-20T06:34:35.754Z,-1.90
2022-11-20T06:39:37.686Z,-2.01
2022-11-20T06:44:39.598Z,-1.85
2022-11-20T06:49:41.509Z,-1.76
2022-11-20T06:54:43.760Z,-1.70
2022-11-20T06:59:46.169Z,-1.58
2022-11-20T07:04:48.024Z,-1.53
2022-11-20T07:09:50.018Z,-1.33
2022-11-20T07:14:52.092Z,-1.23
2022-11-20T07:19:54.178Z,-1.27
2022-11-20T07:24:56.124Z,-1.17
2022-11-20T07:29:58.201Z,-1.15
2022-11-20T07:35:00.104Z,-1.19
2022-11-20T07:40:02.264Z,-0.98
2022-11-20T07:45:04.765Z,-0.91
2022-11-20T07:50:07.144Z,-1.00
2022-11-20T07:55:10.646Z,-0.71
2022-11-20T08:00:13.619Z,-0.56
2022-11-20T08:05:15.722Z,-0.46
2022-11-20T08:10:17.833Z,-0.30
2022-11-20T08:15:19.749Z,-0.41
2022-11-20T08:20:21.828Z,-0.59
2022-11-20T08:25:23.758Z,-0.23
2022-11-20T08:30:26.678Z,-0.15
2022-11-20T08:35:28.583Z,0.06
2022-11-20T08:40:31.020Z,-0.08
2022-11-20T08:45:35.070Z,0.25
2022-11-20T08:50:37.278Z,0.62
2022-11-20T08:55:40.829Z,0.34
2022-11-20T09:00:42.966Z,0.50
2022-11-20T09:05:44.893Z,0.65
2022-11-20T09:10:46.780Z,0.89
2022-11-20T09:15:48.944Z,0.81
2022-11-20T09:20:51.128Z,0.87
2022-11-20T09:25:53.772Z,1.10
2022-11-20T09:30:55.825Z,1.41
2022-11-20T09:35:57.653Z,1.28
2022-11-20T09:41:05.534Z,1.35
2022-11-20T09:46:18.176Z,1.62
2022-11-20T09:51:57.874Z,1.70
2022-11-20T09:57:14.261Z,1.90
2022-11-20T10:02:25.855Z,2.03
2022-11-20T10:07:36.742Z,1.79
2022-11-20T10:13:09.579Z,2.09
2022-11-20T10:18:43.580Z,2.00
2022-11-20T10:23:45.373Z,2.20
2022-11-20T10:29:08.677Z,2.40
2022-11-20T10:34:34.668Z,2.41
2022-11-20T10:39:45.616Z,2.58
2022-11-20T10:45:05.748Z,2.42
2022-11-20T10:50:21.935Z,2.55
2022-11-20T10:55:43.676Z,2.58
2022-11-20T11:00:46.092Z,2.68
2022-11-20T11:05:54.721Z,2.68
2022-11-20T11:11:00.231Z,2.60
2022-11-20T11:16:04.025Z,2.91
2022-11-20T11:21:06.415Z,3.09
2022-11-20T11:26:22.235Z,3.10
2022-11-20T11:31:29.581Z,3.00
2022-11-20T11:36:32.402Z,3.09
2022-11-20T11:41:38.007Z,3.27
2022-11-20T11:46:45.016Z,3.49
2022-11-20T11:52:08.976Z,3.58
2022-11-20T11:57:21.600Z,3.61
2022-11-20T12:02:37.031Z,3.82
2022-11-20T12:07:47.779Z,3.59
2022-11-20T12:12:56.024Z,3.71
2022-11-20T12:17:58.324Z,3.69
2022-11-20T12:23:23.187Z,3.90
2022-11-20T12:28:57.353Z,3.72
2022-11-20T12:34:18.125Z,3.82
2022-11-20T12:39:51.519Z,4.04
2022-11-20T12:45:24.727Z,3.99
2022-11-20T12:51:08.013Z,3.75
2022-11-20T12:56:21.414Z,3.53
2022-11-20T13:01:41.812Z,3.50
2022-11-20T13:06:45.168Z,3.16
2022-11-20T13:12:14.838Z,3.13
2022-11-20T13:17:31.369Z,3.15
2022-11-20T13:22:45.821Z,3.11
2022-11-20T13:27:49.471Z,3.02
2022-11-20T13:32:52.878Z,3.14
2022-11-20T13:38:10.175Z,3.09
2022-11-20T13:43:34.909Z,2.96
2022-11-20T13:48:42.983Z,2.79
2022-11-20T13:53:57.024Z,2.93
2022-11-20T13:59:20.737Z,2.59
2022-11-20T14:04:34.623Z,2.60
2022-11-20T14:09:36.621Z,2.64
2022-11-20T14:14:58.891Z,2.39
2022-11-20T14:20:15.784Z,2.11
2022-11-20T14:25:17.740Z,1.93
2022-11-20T14:30:25.663Z,1.87
2022-11-20T14:35:30.079Z,1.84
2022-11-20T14:40:37.146Z,1.95
2022-11-20T14:45:40.406Z,1.78
2022-11-20T14:50:42.283Z,1.76
2022-11-20T14:55:44.223Z,1.69
2022-11-20T15:00:58.053Z,1.65
2022-11-20T15:06:00.088Z,1.60
2022-11-20T15:11:02.772Z,1.55
2022-11-20T15:16:20.104Z,1.53
2022-11-20T15:21:22.292Z,1.33
2022-11-20T15:26:27.265Z,1.39
2022-11-20T15:31:29.383Z,1.57
2022-11-20T15:36:31.248Z,1.51
2022-11-20T15:41:33.460Z,1.64
2022-11-20T15:46:41.025Z,1.67
2022-11-20T15:51:47.237Z,1.60
2022-11-20T15:56:50.708Z,1.45
2022-11-20T16:01:52.668Z,1.57
2022-11-20T16:06:54.599Z,1.62
2022-11-20T16:12:00.059Z,1.55
2022-11-20T16:17:02.594Z,1.65
2022-11-20T16:22:04.816Z,1.88
2022-11-20T16:27:06.766Z,1.79
2022-11-20T16:32:09.620Z,1.99
2022-11-20T16:37:11.546Z,1.93
2022-11-20T16:42:13.660Z,1.80
2022-11-20T16:47:15.615Z,1.54
2022-11-20T16:52:17.744Z,1.46
2022-11-20T16:57:19.776Z,1.40
2022-11-20T17:02:21.700Z,1.28
2022-11-20T17:07:24.370Z,1.13
2022-11-20T17:12:26.247Z,1.08
2022-11-20T17:17:28.314Z,0.88
2022-11-20T17:22:31.575Z,0.63
2022-11-20T17:27:33.759Z,0.75
2022-11-20T17:32:35.781Z,0.75
2022-11-20T17:37:37.779Z,0.63
2022-11-20T17:42:40.289Z,0.71
2022-11-20T17:47:44.440Z,0.65
2022-11-20T17:52:46.444Z,0.45
2022-11-20T17:57:56.647Z,0.45
2022-11-20T18:02:59.111Z,0.30
2022-11-20T18:08:01.142Z,0.42
2022-11-20T18:13:03.260Z,0.20
2022-11-20T18:18:05.468Z,0.06
2022-11-20T18:23:07.398Z,0.06
2022-11-20T18:28:10.012Z,-0.10
2022-11-20T18:33:12.050Z,-0.06
2022-11-20T18:38:13.936Z,0.04
2022-11-20T18:43:34.552Z,0.01
2022-11-20T18:48:36.585Z,0.33
2022-11-20T18:53:40.907Z,0.82
2022-11-20T18:58:46.459Z,0.94
2022-11-20T19:03:48.380Z,1.24
2022-11-20T19:08:50.570Z,1.40
2022-11-20T19:13:52.860Z,1.54
2022-11-20T19:18:57.279Z,1.76
2022-11-20T19:24:02.792Z,1.92
2022-11-20T19:29:06.172Z,2.08
2022-11-20T19:34:08.695Z,2.25
2022-11-20T19:39:11.466Z,2.39
2022-11-20T19:44:15.804Z,2.47
2022-11-20T19:49:18.103Z,2.46
2022-11-20T19:54:20.086Z,2.31
2022-11-20T19:59:23.209Z,2.53
2022-11-20T20:04:25.513Z,2.52
2022-11-20T20:09:27.699Z,2.60
2022-11-20T20:14:29.808Z,2.31
2022-11-20T20:19:32.149Z,2.58
2022-11-20T20:24:34.119Z,2.69
2022-11-20T20:29:36.249Z,2.53
2022-11-20T20:34:38.120Z,2.75
2022-11-20T20:39:40.035Z,2.73
2022-11-20T20:45:01.048Z,2.69
2022-11-20T20:50:05.382Z,2.68
2022-11-20T20:55:08.036Z,2.83
2022-11-20T21:00:10.600Z,2.86
2022-11-20T21:05:13.044Z,2.85
2022-11-20T21:10:17.752Z,2.61
2022-11-20T21:15:21.823Z,2.25
2022-11-20T21:20:42.462Z,2.34
2022-11-20T21:25:44.920Z,2.23
2022-11-20T21:30:47.322Z,2.37
2022-11-20T21:35:49.177Z,2.46
2022-11-20T21:40:51.097Z,2.27
2022-11-20T21:45:53.102Z,2.21
2022-11-20T21:50:55.048Z,2.22
2022-11-20T21:55:57.953Z,2.17
2022-11-20T22:00:59.895Z,2.11
2022-11-20T22:06:01.848Z,2.29
2022-11-20T22:11:12.345Z,2.15
2022-11-20T22:16:14.810Z,2.02
2022-11-20T22:21:20.117Z,2.01
2022-11-20T22:26:27.311Z,1.83
2022-11-20T22:31:30.784Z,1.39
2022-11-20T22:36:32.839Z,1.45
2022-11-20T22:41:35.372Z,1.39
2022-11-20T22:46:38.244Z,1.36
2022-11-20T22:51:41.267Z,1.29
2022-11-20T22:56:43.183Z,1.37
2022-11-20T23:01:45.091Z,1.47
2022-11-20T23:06:47.077Z,1.79
2022-11-20T23:11:48.979Z,1.80
2022-11-20T23:16:50.996Z,1.80
2022-11-20T23:21:53.350Z,1.63
2022-11-20T23:26:55.447Z,1.57
2022-11-20T23:31:57.533Z,1.70
2022-11-20T23:37:01.276Z,1.65
2022-11-20T23:42:03.162Z,1.80
2022-11-20T23:47:05.140Z,1.84
2022-11-20T23:52:07.096Z,1.97
2022-11-20T23:57:08.963Z,2.10
